createdAt,value
2023-05-20T00:03:11.571Z,1.50
2023-05-20T00:07:13.952Z,1.50
2023-05-20T00:11:16.086Z,1.77
2023-05-20T00:15:18.210Z,1.35
2023-05-20T00:19:20.560Z,1.42
2023-05-20T00:23:22.679Z,1.50
2023-05-20T00:27:24.724Z,1.60
2023-05-20T00:31:26.888Z,1.70
2023-05-20T00:35:28.955Z,1.65
2023-05-20T00:39:30.982Z,1.60
2023-05-20T00:43:33.044Z,1.60
2023-05-20T00:47:36.678Z,1.77
2023-05-20T00:51:38.965Z,1.90
2023-05-20T00:55:41.077Z,1.60
2023-05-20T00:59:44.835Z,1.67
2023-05-20T01:03:51.326Z,1.65
2023-05-20T01:07:53.606Z,1.60
2023-05-20T01:12:48.486Z,2.10
2023-05-20T01:16:52.383Z,1.60
2023-05-20T01:21:01.476Z,1.90
2023-05-20T01:25:04.333Z,1.90
2023-05-20T01:29:06.429Z,1.80
2023-05-20T01:33:12.283Z,1.73
2023-05-20T01:37:15.275Z,1.95
2023-05-20T01:41:18.289Z,1.90
2023-05-20T01:45:20.922Z,2.20
2023-05-20T01:49:23.012Z,2.10
2023-05-20T01:53:25.772Z,1.73
2023-05-20T01:57:27.858Z,2.10
2023-05-20T02:01:30.005Z,1.98
2023-05-20T02:05:32.215Z,2.10
2023-05-20T02:09:34.369Z,1.80
2023-05-20T02:13:36.414Z,1.98
2023-05-20T02:17:39.846Z,2.15
2023-05-20T02:21:42.635Z,2.00
2023-05-20T02:25:45.640Z,2.05
2023-05-20T02:29:47.820Z,2.30
2023-05-20T02:33:49.961Z,2.50
2023-05-20T02:37:52.050Z,2.50
2023-05-20T02:41:54.309Z,2.40
2023-05-20T02:45:56.445Z,2.42
2023-05-20T02:49:58.629Z,2.60
2023-05-20T02:54:00.950Z,2.38
2023-05-20T02:58:03.860Z,2.50
2023-05-20T03:02:08.973Z,2.40
2023-05-20T03:06:11.279Z,2.45
2023-05-20T03:10:13.507Z,2.60
2023-05-20T03:14:15.700Z,2.70
2023-05-20T03:18:17.810Z,2.55
2023-05-20T03:22:21.248Z,2.72
2023-05-20T03:26:25.599Z,2.70
2023-05-20T03:30:28.125Z,3.03
2023-05-20T03:34:32.019Z,2.60
2023-05-20T03:38:35.215Z,2.65
2023-05-20T03:42:38.748Z,2.40
2023-05-20T03:46:41.912Z,2.78
2023-05-20T03:50:44.146Z,3.30
2023-05-20T03:54:46.601Z,3.42
2023-05-20T03:58:48.801Z,3.30
2023-05-20T04:02:51.203Z,2.92
2023-05-20T04:06:54.551Z,2.90
2023-05-20T04:10:57.325Z,3.22
2023-05-20T04:15:01.246Z,2.67
2023-05-20T04:19:05.957Z,3.23
2023-05-20T04:23:08.121Z,3.70
2023-05-20T04:27:11.123Z,3.10
2023-05-20T04:31:14.386Z,3.10
2023-05-20T04:35:17.324Z,3.20
2023-05-20T04:39:21.694Z,3.17
2023-05-20T04:43:31.764Z,3.10
2023-05-20T04:47:38.468Z,3.33
2023-05-20T04:51:41.828Z,3.72
2023-05-20T04:55:45.497Z,4.00
2023-05-20T04:59:48.146Z,3.40
2023-05-20T05:03:50.400Z,3.45
2023-05-20T05:07:52.478Z,3.80
2023-05-20T05:11:54.643Z,3.65
2023-05-20T05:16:01.356Z,3.63
2023-05-20T05:20:05.892Z,4.28
2023-05-20T05:24:08.384Z,4.05
2023-05-20T05:28:11.141Z,4.22
2023-05-20T05:32:13.308Z,3.92
2023-05-20T05:36:16.402Z,4.70
2023-05-20T05:40:18.632Z,4.38
2023-05-20T05:44:22.104Z,4.30
2023-05-20T05:48:24.568Z,4.35
2023-05-20T05:52:27.123Z,4.45
2023-05-20T05:56:29.377Z,4.55
2023-05-20T06:00:32.819Z,4.57
2023-05-20T06:04:34.958Z,4.60
2023-05-20T06:08:37.115Z,4.38
2023-05-20T06:12:39.336Z,4.95
2023-05-20T06:16:41.481Z,4.18
2023-05-20T06:20:43.816Z,5.13
2023-05-20T06:24:47.126Z,4.57
2023-05-20T06:28:49.253Z,5.00
2023-05-20T06:32:51.472Z,5.38
2023-05-20T06:36:53.742Z,5.35
2023-05-20T06:40:55.949Z,5.00
2023-05-20T06:44:58.447Z,5.30
2023-05-20T06:49:32.904Z,5.60
2023-05-20T06:53:36.581Z,5.45
2023-05-20T06:57:39.093Z,6.15
2023-05-20T07:01:41.379Z,5.85
2023-05-20T07:05:44.287Z,10.20
2023-05-20T07:09:47.078Z,6.65
2023-05-20T07:13:49.315Z,7.63
2023-05-20T07:17:51.600Z,6.78
2023-05-20T07:21:53.973Z,7.50
2023-05-20T07:26:14.732Z,6.90
2023-05-20T07:30:17.124Z,6.80
2023-05-20T07:34:26.394Z,7.20
2023-05-20T07:38:28.570Z,7.03
2023-05-20T07:42:35.292Z,7.43
2023-05-20T07:46:38.308Z,7.35
2023-05-20T07:50:41.974Z,6.78
2023-05-20T07:54:44.608Z,7.30
2023-05-20T07:58:55.626Z,6.93
2023-05-20T08:02:59.869Z,7.55
2023-05-20T08:07:08.685Z,7.07
2023-05-20T08:11:24.362Z,7.60
2023-05-20T08:15:27.451Z,7.15
2023-05-20T08:19:29.843Z,7.22
2023-05-20T08:23:34.191Z,7.60
2023-05-20T08:27:38.996Z,7.63
2023-05-20T08:31:42.317Z,7.80
2023-05-20T08:35:44.609Z,8.10
2023-05-20T08:39:49.120Z,7.28
2023-05-20T08:43:52.674Z,8.25
2023-05-20T08:47:55.815Z,8.13
2023-05-20T08:52:00.162Z,8.35
2023-05-20T08:56:03.823Z,7.60
2023-05-20T09:00:10.657Z,8.00
2023-05-20T09:04:12.774Z,8.13
2023-05-20T09:08:15.240Z,8.35
2023-05-20T09:12:17.340Z,7.78
2023-05-20T09:16:19.743Z,7.97
2023-05-20T09:20:25.844Z,7.72
2023-05-20T09:24:28.114Z,8.02
2023-05-20T09:28:30.369Z,7.57
2023-05-20T09:32:32.591Z,8.70
2023-05-20T09:36:35.329Z,8.15
2023-05-20T09:40:41.097Z,9.02
2023-05-20T09:44:45.133Z,7.72
2023-05-20T09:48:47.638Z,7.32
2023-05-20T09:52:53.854Z,8.20
2023-05-20T09:56:57.411Z,7.57
2023-05-20T10:00:59.837Z,7.57
2023-05-20T10:05:07.371Z,7.97
2023-05-20T10:09:12.445Z,7.25
2023-05-20T10:13:23.754Z,7.60
2023-05-20T10:17:40.672Z,7.80
2023-05-20T10:21:43.109Z,7.45
2023-05-20T10:25:54.608Z,7.80
2023-05-20T10:29:57.542Z,7.05
2023-05-20T10:33:59.797Z,7.00
2023-05-20T10:38:10.950Z,7.65
2023-05-20T10:42:13.118Z,7.70
2023-05-20T10:46:32.647Z,7.10
2023-05-20T10:50:40.627Z,7.30
2023-05-20T10:54:57.750Z,7.35
2023-05-20T10:59:01.924Z,7.75
2023-05-20T11:03:05.634Z,6.82
2023-05-20T11:07:07.839Z,6.60
2023-05-20T11:11:11.234Z,6.78
2023-05-20T11:15:13.386Z,7.10
2023-05-20T11:19:19.128Z,7.78
2023-05-20T11:23:23.259Z,7.50
2023-05-20T11:27:25.355Z,7.90
2023-05-20T11:31:28.133Z,7.97
2023-05-20T11:35:33.402Z,8.50
2023-05-20T11:39:35.475Z,9.02
2023-05-20T11:43:37.586Z,8.95
2023-05-20T11:47:39.886Z,9.43
2023-05-20T11:51:43.373Z,8.70
2023-05-20T11:55:49.047Z,8.70
2023-05-20T11:59:51.098Z,9.50
2023-05-20T12:03:53.807Z,9.25
2023-05-20T12:07:56.601Z,9.82
2023-05-20T12:11:59.375Z,9.23
2023-05-20T12:16:01.456Z,9.75
2023-05-20T12:20:06.467Z,9.13
2023-05-20T12:24:09.233Z,9.63
2023-05-20T12:28:11.253Z,9.00
2023-05-20T12:32:13.446Z,9.40
2023-05-20T12:36:15.614Z,9.45
2023-05-20T12:40:17.654Z,9.52
2023-05-20T12:44:19.675Z,9.73
2023-05-20T12:48:21.701Z,9.88
2023-05-20T12:52:24.077Z,10.20
2023-05-20T12:56:26.428Z,10.18
2023-05-20T13:00:29.118Z,8.98
2023-05-20T13:04:31.303Z,9.73
2023-05-20T13:08:33.359Z,8.63
2023-05-20T13:12:35.746Z,9.77
2023-05-20T13:16:38.444Z,9.38
2023-05-20T13:20:40.507Z,10.02
2023-05-20T13:24:42.609Z,9.55
2023-05-20T13:28:44.680Z,9.45
2023-05-20T13:32:46.757Z,8.85
2023-05-20T13:36:48.970Z,9.05
2023-05-20T13:40:51.072Z,9.52
2023-05-20T13:44:53.123Z,8.85
2023-05-20T13:48:55.369Z,8.75
2023-05-20T13:52:57.535Z,8.70
2023-05-20T13:56:59.649Z,9.00
2023-05-20T14:01:01.939Z,9.27
2023-05-20T14:05:04.610Z,9.15
2023-05-20T14:09:08.536Z,9.27
2023-05-20T14:13:10.666Z,8.88
2023-05-20T14:17:12.739Z,8.38
2023-05-20T14:21:14.860Z,7.82
2023-05-20T14:25:16.923Z,8.73
2023-05-20T14:29:19.468Z,9.45
2023-05-20T14:33:21.546Z,8.20
2023-05-20T14:37:23.617Z,8.82
2023-05-20T14:41:25.962Z,8.20
2023-05-20T14:45:28.066Z,8.30
2023-05-20T14:49:31.466Z,8.45
2023-05-20T14:53:33.519Z,8.07
2023-05-20T14:57:35.680Z,7.70
2023-05-20T15:01:37.935Z,8.25
2023-05-20T15:05:41.188Z,8.38
2023-05-20T15:09:43.919Z,8.20
2023-05-20T15:13:46.522Z,8.52
2023-05-20T15:17:48.848Z,8.13
2023-05-20T15:21:51.801Z,8.85
2023-05-20T15:25:53.905Z,9.48
2023-05-20T15:29:56.144Z,9.05
2023-05-20T15:33:58.506Z,9.10
2023-05-20T15:38:00.865Z,8.70
2023-05-20T15:42:03.297Z,8.13
2023-05-20T15:46:05.472Z,8.68
2023-05-20T15:50:08.609Z,7.80
2023-05-20T15:54:10.903Z,8.60
2023-05-20T15:58:12.924Z,8.35
2023-05-20T16:02:15.078Z,8.45
2023-05-20T16:06:17.172Z,8.70
2023-05-20T16:10:19.596Z,8.60
2023-05-20T16:14:21.726Z,8.88
2023-05-20T16:18:24.528Z,9.18
2023-05-20T16:22:26.574Z,8.15
2023-05-20T16:26:31.380Z,8.82
2023-05-20T16:30:35.199Z,8.65
2023-05-20T16:34:37.543Z,8.10
2023-05-20T16:38:39.603Z,8.40
2023-05-20T16:42:42.293Z,8.70
2023-05-20T16:46:44.390Z,8.82
2023-05-20T16:50:46.592Z,8.43
2023-05-20T16:54:50.307Z,8.10
2023-05-20T16:58:53.313Z,8.55
2023-05-20T17:02:55.485Z,9.15
2023-05-20T17:06:57.511Z,8.88
2023-05-20T17:11:00.857Z,9.00
2023-05-20T17:15:03.058Z,9.27
2023-05-20T17:19:05.193Z,9.35
2023-05-20T17:23:07.387Z,9.35
2023-05-20T17:27:09.514Z,10.15
2023-05-20T17:31:11.795Z,9.93
2023-05-20T17:35:13.862Z,10.50
2023-05-20T17:39:16.866Z,10.23
2023-05-20T17:43:19.576Z,10.23
2023-05-20T17:47:21.662Z,10.85
2023-05-20T17:51:23.693Z,10.00
2023-05-20T17:55:25.747Z,10.13
2023-05-20T17:59:27.843Z,10.02
2023-05-20T18:03:29.971Z,10.18
2023-05-20T18:07:33.298Z,10.73
2023-05-20T18:11:35.696Z,10.40
2023-05-20T18:15:37.808Z,11.00
2023-05-20T18:19:39.917Z,10.88
2023-05-20T18:23:42.003Z,10.75
2023-05-20T18:27:44.118Z,10.73
2023-05-20T18:31:46.247Z,11.63
2023-05-20T18:35:48.329Z,10.98
2023-05-20T18:39:50.772Z,10.75
2023-05-20T18:43:52.840Z,10.55
2023-05-20T18:47:57.503Z,11.15
2023-05-20T18:51:59.778Z,12.13
2023-05-20T18:56:03.129Z,11.20
2023-05-20T19:00:08.398Z,11.65
2023-05-20T19:04:10.589Z,11.77
2023-05-20T19:08:12.779Z,12.02
2023-05-20T19:12:14.874Z,12.52
2023-05-20T19:16:17.004Z,12.75
2023-05-20T19:20:19.132Z,11.70
2023-05-20T19:24:21.255Z,12.70
2023-05-20T19:28:23.280Z,12.77
2023-05-20T19:32:25.387Z,12.25
2023-05-20T19:36:27.469Z,13.02
2023-05-20T19:40:29.553Z,12.60
2023-05-20T19:44:31.578Z,13.10
2023-05-20T19:48:33.974Z,11.63
2023-05-20T19:52:36.026Z,12.40
2023-05-20T19:56:38.175Z,12.60
2023-05-20T20:00:40.275Z,12.45
2023-05-20T20:04:42.369Z,12.43
2023-05-20T20:08:45.765Z,11.48
2023-05-20T20:12:47.985Z,11.90
2023-05-20T20:16:50.052Z,12.73
2023-05-20T20:20:52.080Z,12.13
2023-05-20T20:24:54.165Z,11.63
2023-05-20T20:28:56.266Z,12.23
2023-05-20T20:32:58.410Z,12.50
2023-05-20T20:37:03.387Z,12.15
2023-05-20T20:41:05.458Z,11.98
2023-05-20T20:45:08.120Z,11.80
2023-05-20T20:49:10.399Z,12.18
2023-05-20T20:53:13.359Z,12.05
2023-05-20T20:57:15.425Z,11.15
2023-05-20T21:01:17.726Z,12.45
2023-05-20T21:05:21.383Z,12.40
2023-05-20T21:09:23.668Z,12.55
2023-05-20T21:13:29.563Z,12.13
2023-05-20T21:17:31.703Z,12.27
2023-05-20T21:21:33.860Z,11.80
2023-05-20T21:25:36.146Z,11.65
2023-05-20T21:29:40.234Z,12.30
2023-05-20T21:33:42.470Z,11.63
2023-05-20T21:37:44.516Z,11.32
2023-05-20T21:41:46.670Z,11.02
2023-05-20T21:45:48.724Z,11.02
2023-05-20T21:49:50.832Z,11.68
2023-05-20T21:53:52.895Z,10.95
2023-05-20T21:57:54.965Z,11.13
2023-05-20T22:01:58.087Z,10.85
2023-05-20T22:06:00.790Z,10.85
2023-05-20T22:10:03.554Z,11.52
2023-05-20T22:14:05.648Z,10.98
2023-05-20T22:18:08.032Z,10.48
2023-05-20T22:22:10.281Z,10.50
2023-05-20T22:26:12.363Z,10.25
2023-05-20T22:30:14.450Z,10.50
2023-05-20T22:34:16.543Z,10.27
2023-05-20T22:38:18.596Z,10.35
2023-05-20T22:42:20.645Z,11.20
2023-05-20T22:46:23.620Z,10.77
2023-05-20T22:50:26.284Z,10.90
2023-05-20T22:54:28.498Z,10.40
2023-05-20T22:58:33.594Z,10.55
2023-05-20T23:02:35.742Z,9.82
2023-05-20T23:06:39.138Z,10.30
2023-05-20T23:10:41.199Z,10.32
2023-05-20T23:14:43.402Z,11.27
2023-05-20T23:18:46.432Z,10.05
2023-05-20T23:22:48.562Z,10.70
2023-05-20T23:26:51.125Z,9.93
2023-05-20T23:30:53.180Z,10.93
2023-05-20T23:34:55.436Z,10.45
2023-05-20T23:38:57.532Z,9.95
2023-05-20T23:42:59.579Z,9.32
2023-05-20T23:47:02.454Z,10.23
2023-05-20T23:51:04.655Z,9.38
2023-05-20T23:55:09.220Z,10.10
2023-05-20T23:59:11.404Z,10.07
